Time;durP1;ratioP1;P1;durP2;ratioP2;P2;SDS_P1;SDS_P2;PMS_P1;PMS_P2;Temp;Humidity;BMP_temperature;BMP_pressure;BME280_temperature;BME280_humidity;BME280_pressure;Samples;Min_cycle;Max_cycle;Signal;HPM_P1;HPM_P2
2021/04/30 00:01:07;;;;;;;72.30;43.15;;;;;;;;;;4984816;28;20190;-68
2021/04/30 00:03:32;;;;;;;67.53;42.73;;;;;;;;;;4997916;28;20226;-68
2021/04/30 00:05:58;;;;;;;69.70;43.27;;;;;;;;;;4982722;28;20776;-69
2021/04/30 00:08:23;;;;;;;70.73;43.27;;;;;;;;;;4993766;28;20210;-68
2021/04/30 00:10:48;;;;;;;70.45;42.42;;;;;;;;;;4994152;28;20191;-68
2021/04/30 00:13:14;;;;;;;71.20;43.23;;;;;;;;;;4986724;28;20249;-68
2021/04/30 00:15:39;;;;;;;72.83;43.23;;;;;;;;;;4991728;28;20187;-68
2021/04/30 00:18:05;;;;;;;68.77;40.37;;;;;;;;;;4985042;28;20187;-68
2021/04/30 00:20:32;;;;;;;68.37;41.63;;;;;;;;;;4993775;28;20191;-68
2021/04/30 00:22:58;;;;;;;63.40;40.07;;;;;;;;;;4985123;28;20204;-68
2021/04/30 00:25:23;;;;;;;73.57;41.55;;;;;;;;;;4994764;28;20532;-68
2021/04/30 00:27:49;;;;;;;76.93;41.37;;;;;;;;;;4987025;28;20303;-68
2021/04/30 00:30:15;;;;;;;66.70;40.93;;;;;;;;;;4992279;28;20233;-68
2021/04/30 00:32:40;;;;;;;63.15;40.40;;;;;;;;;;4984218;28;20196;-68
2021/04/30 00:35:06;;;;;;;71.32;41.83;;;;;;;;;;4994203;28;20202;-68
2021/04/30 00:37:32;;;;;;;66.85;41.92;;;;;;;;;;4984082;28;20195;-68
2021/04/30 00:39:57;;;;;;;68.80;41.60;;;;;;;;;;4993844;28;20178;-68
2021/04/30 00:42:23;;;;;;;68.27;40.50;;;;;;;;;;4996712;28;20191;-67
2021/04/30 00:44:48;;;;;;;67.63;40.77;;;;;;;;;;4984238;28;20198;-67
2021/04/30 00:47:25;;;;;;;65.83;41.47;;;;;;;;;;4999878;28;20751;-67
2021/04/30 00:49:51;;;;;;;77.83;41.50;;;;;;;;;;4980703;28;20244;-67
2021/04/30 00:52:17;;;;;;;64.23;40.10;;;;;;;;;;4995838;28;20199;-67
2021/04/30 00:54:42;;;;;;;66.20;41.07;;;;;;;;;;4981378;28;20568;-67
2021/04/30 00:57:08;;;;;;;67.80;40.80;;;;;;;;;;4985804;28;20218;-67
2021/04/30 00:59:33;;;;;;;64.88;40.60;;;;;;;;;;4980897;28;20607;-67
2021/04/30 01:01:59;;;;;;;60.75;38.22;;;;;;;;;;4998274;28;20855;-68
2021/04/30 01:04:24;;;;;;;62.20;38.90;;;;;;;;;;4984756;28;20217;-67
2021/04/30 01:06:49;;;;;;;63.00;39.07;;;;;;;;;;4995166;28;20595;-67
2021/04/30 01:09:15;;;;;;;69.28;40.28;;;;;;;;;;4983522;28;20199;-67
2021/04/30 01:11:40;;;;;;;61.47;37.77;;;;;;;;;;4998007;28;20192;-67
2021/04/30 01:14:05;;;;;;;59.80;39.53;;;;;;;;;;4995134;28;20188;-67
2021/04/30 01:16:31;;;;;;;56.73;38.43;;;;;;;;;;4979938;28;20672;-67
2021/04/30 01:18:56;;;;;;;62.10;38.93;;;;;;;;;;4993302;28;20221;-68
2021/04/30 01:21:24;;;;;;;64.83;41.27;;;;;;;;;;4988523;28;20229;-67
2021/04/30 01:23:51;;;;;;;62.47;40.58;;;;;;;;;;4992911;28;20629;-67
2021/04/30 01:26:17;;;;;;;67.47;41.03;;;;;;;;;;4984810;28;20198;-68
2021/04/30 01:28:44;;;;;;;62.33;41.27;;;;;;;;;;4989110;28;20195;-67
2021/04/30 01:31:09;;;;;;;63.57;40.50;;;;;;;;;;4986865;28;20182;-67
2021/04/30 01:33:34;;;;;;;69.05;40.15;;;;;;;;;;4993552;28;20658;-67
2021/04/30 01:36:00;;;;;;;70.35;40.45;;;;;;;;;;4981536;28;20191;-68
2021/04/30 01:38:26;;;;;;;62.83;40.53;;;;;;;;;;4989580;28;20199;-68
2021/04/30 01:40:52;;;;;;;68.43;41.33;;;;;;;;;;4984485;28;20222;-68
2021/04/30 01:43:19;;;;;;;71.07;40.93;;;;;;;;;;4990432;28;20273;-68
2021/04/30 01:45:52;;;;;;;67.87;42.03;;;;;;;;;;4997062;28;20257;-68
2021/04/30 01:48:36;;;;;;;63.60;41.97;;;;;;;;;;4991484;28;20238;-68
2021/04/30 01:51:03;;;;;;;68.27;42.43;;;;;;;;;;4991352;28;20211;-68
2021/04/30 01:53:34;;;;;;;69.13;42.00;;;;;;;;;;4988833;28;20266;-68
2021/04/30 01:56:01;;;;;;;66.20;42.10;;;;;;;;;;4996997;28;20661;-68
2021/04/30 01:58:27;;;;;;;69.17;42.70;;;;;;;;;;4986478;28;20638;-68
2021/04/30 02:00:54;;;;;;;71.23;41.57;;;;;;;;;;4991940;28;20197;-68
2021/04/30 02:03:19;;;;;;;68.57;41.73;;;;;;;;;;4982968;28;20245;-68
2021/04/30 02:05:45;;;;;;;75.90;40.57;;;;;;;;;;4990837;28;20183;-68
2021/04/30 02:08:12;;;;;;;69.03;42.20;;;;;;;;;;4983162;28;20249;-68
2021/04/30 02:10:38;;;;;;;67.63;42.93;;;;;;;;;;4997148;28;20230;-68
2021/04/30 02:13:04;;;;;;;77.83;43.07;;;;;;;;;;4986386;28;20243;-68
2021/04/30 02:15:32;;;;;;;67.93;43.03;;;;;;;;;;4997615;28;20249;-68
2021/04/30 02:17:57;;;;;;;73.00;43.93;;;;;;;;;;4986213;28;20205;-68
2021/04/30 02:20:24;;;;;;;77.90;43.93;;;;;;;;;;4994349;28;20190;-68
2021/04/30 02:22:50;;;;;;;78.47;43.97;;;;;;;;;;4992525;28;20250;-68
2021/04/30 02:25:17;;;;;;;81.57;46.30;;;;;;;;;;4994750;28;20582;-68
2021/04/30 02:27:43;;;;;;;78.33;45.23;;;;;;;;;;4997837;28;20629;-68
2021/04/30 02:30:11;;;;;;;81.80;44.67;;;;;;;;;;4982242;28;20863;-68
2021/04/30 02:32:37;;;;;;;73.27;45.27;;;;;;;;;;4999022;28;20238;-68
2021/04/30 02:35:05;;;;;;;84.37;46.17;;;;;;;;;;4988820;28;20277;-68
2021/04/30 02:37:30;;;;;;;77.50;46.13;;;;;;;;;;4999176;28;20663;-68
2021/04/30 02:39:56;;;;;;;81.90;45.33;;;;;;;;;;4986511;28;20183;-68
2021/04/30 02:42:21;;;;;;;76.90;44.50;;;;;;;;;;4994918;28;21323;-68
2021/04/30 02:44:47;;;;;;;80.63;46.73;;;;;;;;;;4984062;28;20576;-68
2021/04/30 02:47:13;;;;;;;66.80;41.07;;;;;;;;;;4993677;28;20226;-68
2021/04/30 02:49:41;;;;;;;77.37;44.40;;;;;;;;;;4989463;28;20195;-68
2021/04/30 02:52:08;;;;;;;80.33;45.37;;;;;;;;;;4994695;28;20186;-68
2021/04/30 02:54:35;;;;;;;78.87;43.77;;;;;;;;;;4982122;28;20187;-68
2021/04/30 02:57:00;;;;;;;78.37;45.17;;;;;;;;;;4995150;28;20286;-68
2021/04/30 02:59:27;;;;;;;68.33;42.73;;;;;;;;;;4992307;28;20195;-68
2021/04/30 03:01:53;;;;;;;67.97;43.00;;;;;;;;;;4986276;28;20222;-68
2021/04/30 03:04:18;;;;;;;69.93;43.37;;;;;;;;;;4990820;28;20257;-68
2021/04/30 03:06:43;;;;;;;73.97;42.73;;;;;;;;;;4984887;28;20199;-68
2021/04/30 03:09:09;;;;;;;66.37;41.30;;;;;;;;;;4994213;28;20200;-68
2021/04/30 03:11:34;;;;;;;71.67;43.00;;;;;;;;;;4988084;28;20306;-68
2021/04/30 03:13:59;;;;;;;72.73;43.57;;;;;;;;;;4993169;28;20302;-68
2021/04/30 03:16:25;;;;;;;67.40;41.53;;;;;;;;;;4990341;28;20199;-68
2021/04/30 03:18:50;;;;;;;70.43;42.60;;;;;;;;;;4994067;28;20614;-67
2021/04/30 03:21:15;;;;;;;75.00;44.23;;;;;;;;;;4991969;28;20191;-68
2021/04/30 03:23:41;;;;;;;70.10;41.87;;;;;;;;;;4992677;28;20206;-68
2021/04/30 03:26:06;;;;;;;72.23;44.23;;;;;;;;;;4988425;28;20188;-68
2021/04/30 03:28:31;;;;;;;66.90;41.63;;;;;;;;;;4998126;28;20588;-68
2021/04/30 03:30:57;;;;;;;66.53;43.00;;;;;;;;;;4990407;28;20187;-68
2021/04/30 03:33:22;;;;;;;73.20;44.50;;;;;;;;;;4987135;28;20681;-68
2021/04/30 03:35:48;;;;;;;72.80;42.93;;;;;;;;;;5002098;28;20332;-68
2021/04/30 03:38:13;;;;;;;69.63;43.23;;;;;;;;;;4985277;28;20194;-68
2021/04/30 03:40:38;;;;;;;68.90;42.50;;;;;;;;;;4989558;28;20191;-68
2021/04/30 03:43:04;;;;;;;69.67;42.90;;;;;;;;;;4986300;28;20216;-68
2021/04/30 03:45:29;;;;;;;74.77;42.53;;;;;;;;;;5000621;28;20643;-68
2021/04/30 03:47:55;;;;;;;66.80;43.60;;;;;;;;;;4985183;28;20266;-68
2021/04/30 03:50:20;;;;;;;72.30;42.13;;;;;;;;;;5000499;28;20194;-68
2021/04/30 03:52:45;;;;;;;72.47;43.40;;;;;;;;;;4987638;28;20195;-68
2021/04/30 03:55:11;;;;;;;63.43;40.17;;;;;;;;;;4994861;28;20284;-68
2021/04/30 03:57:36;;;;;;;72.57;42.10;;;;;;;;;;4984163;28;20178;-68
2021/04/30 04:00:03;;;;;;;74.27;43.47;;;;;;;;;;4993100;28;20183;-68
2021/04/30 04:02:29;;;;;;;66.67;42.17;;;;;;;;;;4995305;28;20237;-68
2021/04/30 04:04:54;;;;;;;66.57;40.43;;;;;;;;;;4989599;28;20190;-68
2021/04/30 04:07:20;;;;;;;65.83;40.00;;;;;;;;;;4990575;28;20313;-68
2021/04/30 04:09:45;;;;;;;67.87;40.77;;;;;;;;;;4983865;28;20198;-68
2021/04/30 04:12:10;;;;;;;70.47;42.03;;;;;;;;;;4989980;28;20230;-68
2021/04/30 04:14:36;;;;;;;63.70;40.53;;;;;;;;;;4987116;28;20211;-68
2021/04/30 04:17:01;;;;;;;67.78;41.92;;;;;;;;;;4994280;28;20305;-68
2021/04/30 04:19:26;;;;;;;69.30;41.33;;;;;;;;;;4981518;28;20635;-68
2021/04/30 04:21:52;;;;;;;68.18;41.60;;;;;;;;;;4988356;28;20770;-68
2021/04/30 04:24:17;;;;;;;69.13;40.67;;;;;;;;;;4987354;28;20314;-68
2021/04/30 04:26:42;;;;;;;69.00;42.20;;;;;;;;;;4991303;28;20234;-68
2021/04/30 04:29:08;;;;;;;68.07;41.88;;;;;;;;;;4990093;28;20265;-68
2021/04/30 04:31:36;;;;;;;65.18;41.17;;;;;;;;;;4988097;28;20273;-68
2021/04/30 04:34:02;;;;;;;67.87;42.13;;;;;;;;;;4993644;28;20190;-68
2021/04/30 04:36:28;;;;;;;63.40;42.58;;;;;;;;;;4979359;28;20283;-68
2021/04/30 04:38:53;;;;;;;65.03;42.67;;;;;;;;;;4994435;28;20265;-68
2021/04/30 04:41:18;;;;;;;64.97;41.43;;;;;;;;;;4987594;28;20210;-68
2021/04/30 04:43:44;;;;;;;67.85;42.17;;;;;;;;;;4992338;28;20214;-68
2021/04/30 04:46:09;;;;;;;66.73;41.87;;;;;;;;;;4983050;28;20627;-68
2021/04/30 04:48:35;;;;;;;66.00;41.83;;;;;;;;;;4994198;28;20222;-68
2021/04/30 04:51:00;;;;;;;64.67;41.87;;;;;;;;;;4989072;28;20190;-68
2021/04/30 04:53:26;;;;;;;65.10;41.50;;;;;;;;;;4989716;28;20248;-69
2021/04/30 04:55:51;;;;;;;64.28;41.15;;;;;;;;;;4990297;28;20222;-68
2021/04/30 04:58:16;;;;;;;64.10;41.85;;;;;;;;;;4988595;28;20250;-68
2021/04/30 05:00:42;;;;;;;60.05;39.95;;;;;;;;;;4989938;28;20202;-68
2021/04/30 05:03:07;;;;;;;69.03;41.95;;;;;;;;;;4989559;28;20215;-68
2021/04/30 05:05:32;;;;;;;67.63;41.10;;;;;;;;;;4994348;28;20507;-68
2021/04/30 05:07:58;;;;;;;63.88;41.40;;;;;;;;;;4981997;28;20191;-68
2021/04/30 05:10:23;;;;;;;68.28;42.00;;;;;;;;;;4989734;28;20791;-68
2021/04/30 05:12:49;;;;;;;65.28;41.88;;;;;;;;;;4984935;28;20187;-68
2021/04/30 05:15:15;;;;;;;64.07;41.47;;;;;;;;;;5014446;28;20195;-68
2021/04/30 05:17:42;;;;;;;61.97;42.13;;;;;;;;;;4981759;28;20187;-67
2021/04/30 05:20:09;;;;;;;69.18;43.13;;;;;;;;;;4991123;28;20269;-67
2021/04/30 05:22:35;;;;;;;70.43;42.85;;;;;;;;;;4985241;28;20617;-66
2021/04/30 05:25:00;;;;;;;65.13;42.97;;;;;;;;;;4992173;28;20259;-67
2021/04/30 05:27:26;;;;;;;67.85;42.83;;;;;;;;;;4986033;28;20187;-67
2021/04/30 05:29:51;;;;;;;70.55;42.17;;;;;;;;;;4996809;28;20221;-67
2021/04/30 05:32:17;;;;;;;59.85;41.95;;;;;;;;;;4987322;28;20187;-67
2021/04/30 05:34:43;;;;;;;64.45;41.25;;;;;;;;;;5002360;28;20523;-67
2021/04/30 05:37:08;;;;;;;55.33;36.87;;;;;;;;;;5015008;28;21229;-67
2021/04/30 05:39:34;;;;;;;55.93;36.97;;;;;;;;;;4990032;28;20187;-67
2021/04/30 05:41:59;;;;;;;63.78;40.67;;;;;;;;;;4997094;28;20741;-67
2021/04/30 05:44:25;;;;;;;62.08;40.83;;;;;;;;;;4988750;28;20252;-67
2021/04/30 05:46:50;;;;;;;62.33;41.23;;;;;;;;;;4994156;28;20277;-67
2021/04/30 05:49:15;;;;;;;68.43;42.38;;;;;;;;;;4985730;28;20191;-67
2021/04/30 05:51:41;;;;;;;59.50;41.65;;;;;;;;;;4998893;28;20187;-67
2021/04/30 05:54:06;;;;;;;59.85;40.58;;;;;;;;;;4986268;28;20269;-67
2021/04/30 05:56:32;;;;;;;66.57;42.70;;;;;;;;;;4992243;28;20565;-67
2021/04/30 05:58:58;;;;;;;72.32;42.15;;;;;;;;;;4984570;28;20265;-67
2021/04/30 06:01:24;;;;;;;70.43;42.08;;;;;;;;;;4993180;28;20219;-67
2021/04/30 06:03:49;;;;;;;63.95;41.30;;;;;;;;;;4988127;28;20242;-67
2021/04/30 06:06:15;;;;;;;61.88;41.72;;;;;;;;;;4987371;28;21380;-68
2021/04/30 06:08:40;;;;;;;60.55;39.70;;;;;;;;;;4993012;28;20191;-67
2021/04/30 06:11:05;;;;;;;65.13;42.05;;;;;;;;;;4979643;28;20793;-68
2021/04/30 06:13:31;;;;;;;60.13;39.35;;;;;;;;;;4992780;28;20733;-68
2021/04/30 06:15:57;;;;;;;59.50;38.95;;;;;;;;;;4980383;28;20583;-67
2021/04/30 06:18:22;;;;;;;54.05;37.92;;;;;;;;;;4991594;28;20526;-68
2021/04/30 06:20:48;;;;;;;55.17;37.15;;;;;;;;;;4988092;28;20207;-68
2021/04/30 06:23:13;;;;;;;52.95;36.30;;;;;;;;;;4992402;28;20258;-68
2021/04/30 06:25:38;;;;;;;53.58;36.08;;;;;;;;;;4983534;28;20602;-68
2021/04/30 06:28:04;;;;;;;49.97;35.65;;;;;;;;;;4993877;28;20230;-68
2021/04/30 06:30:29;;;;;;;53.17;37.08;;;;;;;;;;4988909;28;20186;-68
2021/04/30 06:32:55;;;;;;;52.50;34.78;;;;;;;;;;4994477;28;20599;-68
2021/04/30 06:35:20;;;;;;;52.80;34.67;;;;;;;;;;4996728;28;20187;-68
2021/04/30 06:37:45;;;;;;;49.97;35.30;;;;;;;;;;4985248;28;20642;-68
2021/04/30 06:40:11;;;;;;;53.83;34.47;;;;;;;;;;5001438;28;20190;-68
2021/04/30 06:42:36;;;;;;;49.58;31.77;;;;;;;;;;4989044;28;20195;-68
2021/04/30 06:45:03;;;;;;;47.33;30.63;;;;;;;;;;4990755;28;20650;-68
2021/04/30 06:47:28;;;;;;;46.83;30.10;;;;;;;;;;4997383;28;20705;-67
2021/04/30 06:49:54;;;;;;;46.13;29.83;;;;;;;;;;4995968;28;20183;-67
2021/04/30 06:52:19;;;;;;;44.58;29.23;;;;;;;;;;4983023;28;20230;-68
2021/04/30 06:54:45;;;;;;;41.75;29.00;;;;;;;;;;4988849;28;20187;-67
2021/04/30 06:57:15;;;;;;;42.05;29.05;;;;;;;;;;4985179;28;20223;-67
2021/04/30 06:59:40;;;;;;;39.67;29.13;;;;;;;;;;5000133;28;20518;-67
2021/04/30 07:02:06;;;;;;;35.88;27.75;;;;;;;;;;4990413;28;20207;-68
2021/04/30 07:04:31;;;;;;;41.50;28.35;;;;;;;;;;4992926;28;20206;-67
2021/04/30 07:06:57;;;;;;;44.05;28.75;;;;;;;;;;4997189;28;20194;-67
2021/04/30 07:09:22;;;;;;;37.50;27.58;;;;;;;;;;4987743;28;20226;-67
2021/04/30 07:11:47;;;;;;;37.88;28.17;;;;;;;;;;4992571;28;20191;-67
2021/04/30 07:14:13;;;;;;;37.95;27.00;;;;;;;;;;4982360;28;20667;-68
2021/04/30 07:16:38;;;;;;;42.67;27.42;;;;;;;;;;4994588;28;20232;-68
2021/04/30 07:19:03;;;;;;;36.17;26.85;;;;;;;;;;4985997;28;20658;-69
2021/04/30 07:21:29;;;;;;;41.63;26.35;;;;;;;;;;4997999;28;20651;-69
2021/04/30 07:23:54;;;;;;;41.30;28.45;;;;;;;;;;4984146;28;20234;-69
2021/04/30 07:26:19;;;;;;;40.35;28.83;;;;;;;;;;4990949;28;20552;-68
2021/04/30 07:28:45;;;;;;;38.80;27.00;;;;;;;;;;4979136;28;20441;-67
2021/04/30 07:31:10;;;;;;;35.97;26.65;;;;;;;;;;4994660;28;20332;-67
2021/04/30 07:33:37;;;;;;;41.97;28.40;;;;;;;;;;4991873;28;20187;-67
2021/04/30 07:36:04;;;;;;;39.78;28.55;;;;;;;;;;4988384;28;20191;-68
2021/04/30 07:38:29;;;;;;;40.08;28.55;;;;;;;;;;4992553;28;20238;-68
2021/04/30 07:40:55;;;;;;;40.15;28.60;;;;;;;;;;4986675;28;20687;-68
2021/04/30 07:43:20;;;;;;;41.95;28.65;;;;;;;;;;4993441;28;20723;-67
2021/04/30 07:45:45;;;;;;;43.08;28.67;;;;;;;;;;4982292;28;20195;-68
2021/04/30 07:48:11;;;;;;;44.50;28.20;;;;;;;;;;4990342;28;20302;-68
2021/04/30 07:50:38;;;;;;;38.38;27.63;;;;;;;;;;4987892;28;20252;-68
2021/04/30 07:53:03;;;;;;;38.78;29.08;;;;;;;;;;4990251;28;20187;-68
2021/04/30 07:55:29;;;;;;;41.10;28.40;;;;;;;;;;4984258;28;20229;-70
2021/04/30 07:57:55;;;;;;;39.92;29.05;;;;;;;;;;4994370;28;20281;-67
2021/04/30 08:00:20;;;;;;;40.85;29.58;;;;;;;;;;4983755;28;20784;-67
2021/04/30 08:02:49;;;;;;;44.03;29.60;;;;;;;;;;4992978;28;20195;-67
2021/04/30 08:05:15;;;;;;;42.65;30.27;;;;;;;;;;4987514;28;20179;-67
2021/04/30 08:07:43;;;;;;;43.03;30.40;;;;;;;;;;4983010;28;20203;-67
2021/04/30 08:10:10;;;;;;;42.28;29.85;;;;;;;;;;4994342;28;20180;-67
2021/04/30 08:12:36;;;;;;;38.30;28.65;;;;;;;;;;4980425;28;20280;-67
2021/04/30 08:15:01;;;;;;;39.95;28.08;;;;;;;;;;4988624;28;20180;-68
2021/04/30 08:17:27;;;;;;;38.70;28.60;;;;;;;;;;4983353;28;20186;-68
2021/04/30 08:19:58;;;;;;;39.10;29.48;;;;;;;;;;4989834;28;20698;-69
2021/04/30 08:22:27;;;;;;;41.55;29.25;;;;;;;;;;4980702;28;20202;-68
2021/04/30 08:24:53;;;;;;;45.03;28.92;;;;;;;;;;4988200;28;20203;-68
2021/04/30 08:27:20;;;;;;;37.55;29.45;;;;;;;;;;4983721;28;20201;-68
2021/04/30 08:29:45;;;;;;;37.45;28.63;;;;;;;;;;4999231;28;20184;-67
2021/04/30 08:32:11;;;;;;;40.13;27.60;;;;;;;;;;4986110;28;20202;-68
2021/04/30 08:34:36;;;;;;;41.78;27.95;;;;;;;;;;4997841;28;20171;-68
2021/04/30 08:37:01;;;;;;;36.17;27.35;;;;;;;;;;4987890;28;20195;-67
2021/04/30 08:39:27;;;;;;;34.47;26.35;;;;;;;;;;4991107;28;20179;-67
2021/04/30 08:41:53;;;;;;;35.20;27.05;;;;;;;;;;4989993;28;20289;-67
2021/04/30 08:44:18;;;;;;;37.33;26.33;;;;;;;;;;4983668;28;20202;-67
2021/04/30 08:46:44;;;;;;;35.38;26.15;;;;;;;;;;4995137;28;20202;-68
2021/04/30 08:49:10;;;;;;;34.30;25.77;;;;;;;;;;4985286;28;20253;-68
2021/04/30 08:51:37;;;;;;;36.75;24.90;;;;;;;;;;4995367;28;20203;-68
2021/04/30 08:54:04;;;;;;;39.33;26.40;;;;;;;;;;4985957;28;20191;-68
2021/04/30 08:56:29;;;;;;;36.03;26.08;;;;;;;;;;4997952;28;20183;-68
2021/04/30 08:58:55;;;;;;;38.88;28.55;;;;;;;;;;4978100;28;20191;-68
2021/04/30 09:01:21;;;;;;;34.08;26.40;;;;;;;;;;4988182;28;20639;-68
2021/04/30 09:03:51;;;;;;;42.28;27.60;;;;;;;;;;4986722;28;20592;-67
2021/04/30 09:06:31;;;;;;;36.67;26.15;;;;;;;;;;4991936;28;20514;-67
2021/04/30 09:08:57;;;;;;;34.47;26.98;;;;;;;;;;4986194;28;20273;-67
2021/04/30 09:11:49;;;;;;;35.13;25.90;;;;;;;;;;4994642;28;20279;-67
2021/04/30 09:14:17;;;;;;;35.35;25.50;;;;;;;;;;4989100;28;20290;-67
2021/04/30 09:17:02;;;;;;;36.85;24.65;;;;;;;;;;4994091;28;20195;-67
2021/04/30 09:19:48;;;;;;;30.83;24.48;;;;;;;;;;4986496;28;20506;-67
2021/04/30 09:22:16;;;;;;;31.25;23.35;;;;;;;;;;4990030;28;20713;-68
2021/04/30 09:24:41;;;;;;;33.17;25.90;;;;;;;;;;4992114;28;22875;-67
2021/04/30 09:27:07;;;;;;;36.15;25.92;;;;;;;;;;4991009;28;20278;-67
2021/04/30 09:29:34;;;;;;;32.15;25.00;;;;;;;;;;4997697;28;20217;-67
2021/04/30 09:32:00;;;;;;;29.55;23.88;;;;;;;;;;4986240;28;20183;-67
2021/04/30 09:34:35;;;;;;;31.30;22.65;;;;;;;;;;4996693;28;20192;-67
2021/04/30 09:37:17;;;;;;;29.77;22.08;;;;;;;;;;4980620;28;20199;-67
2021/04/30 09:40:00;;;;;;;26.70;19.98;;;;;;;;;;4991750;28;20191;-67
2021/04/30 09:42:27;;;;;;;30.15;21.48;;;;;;;;;;4980527;28;20195;-67
2021/04/30 09:44:56;;;;;;;31.17;21.20;;;;;;;;;;4992447;28;20204;-68
2021/04/30 09:47:30;;;;;;;28.20;21.23;;;;;;;;;;4985190;28;20240;-67
2021/04/30 09:50:01;;;;;;;25.05;20.10;;;;;;;;;;4985868;28;20719;-67
2021/04/30 09:52:29;;;;;;;27.38;20.35;;;;;;;;;;4980513;28;20187;-67
2021/04/30 09:54:59;;;;;;;28.10;22.23;;;;;;;;;;4997664;28;20187;-67
2021/04/30 09:57:26;;;;;;;30.35;22.92;;;;;;;;;;4981835;28;20199;-67
2021/04/30 09:59:51;;;;;;;24.05;20.08;;;;;;;;;;4990479;28;20238;-68
2021/04/30 10:02:18;;;;;;;25.60;19.65;;;;;;;;;;4984652;28;20207;-68
2021/04/30 10:04:47;;;;;;;28.08;20.90;;;;;;;;;;4994591;28;20223;-68
2021/04/30 10:07:24;;;;;;;26.00;19.88;;;;;;;;;;4981512;28;20529;-68
2021/04/30 10:10:01;;;;;;;29.50;20.65;;;;;;;;;;5000042;28;20191;-67
2021/04/30 10:12:27;;;;;;;29.02;19.92;;;;;;;;;;4988281;28;20194;-68
2021/04/30 10:14:54;;;;;;;25.00;19.58;;;;;;;;;;4994311;28;20274;-68
2021/04/30 10:17:20;;;;;;;24.63;19.95;;;;;;;;;;4984336;28;20199;-68
2021/04/30 10:19:47;;;;;;;24.10;19.65;;;;;;;;;;5002203;28;20226;-68
2021/04/30 10:22:16;;;;;;;29.20;21.42;;;;;;;;;;4994169;28;20480;-68
2021/04/30 10:24:48;;;;;;;27.77;21.05;;;;;;;;;;4990930;28;20207;-68
2021/04/30 10:27:20;;;;;;;29.67;21.88;;;;;;;;;;4994746;28;20616;-67
2021/04/30 10:29:54;;;;;;;27.40;20.50;;;;;;;;;;4986263;28;20198;-67
2021/04/30 10:32:22;;;;;;;29.77;21.25;;;;;;;;;;4997593;28;20662;-68
2021/04/30 10:34:50;;;;;;;24.65;20.30;;;;;;;;;;4989398;28;20187;-67
2021/04/30 10:37:25;;;;;;;28.48;20.58;;;;;;;;;;4995132;28;20209;-68
2021/04/30 10:39:59;;;;;;;29.42;20.98;;;;;;;;;;4984147;28;20209;-68
2021/04/30 10:42:40;;;;;;;30.25;23.35;;;;;;;;;;4994413;28;20190;-67
2021/04/30 10:45:08;;;;;;;32.88;23.05;;;;;;;;;;4981933;28;20899;-68
2021/04/30 10:47:36;;;;;;;35.70;24.02;;;;;;;;;;4993262;28;20242;-68
2021/04/30 10:50:10;;;;;;;30.45;24.00;;;;;;;;;;4984889;28;20191;-68
2021/04/30 10:52:35;;;;;;;33.55;24.75;;;;;;;;;;4992190;28;20218;-68
2021/04/30 10:55:04;;;;;;;31.00;23.45;;;;;;;;;;4982509;28;20229;-68
2021/04/30 10:57:49;;;;;;;31.88;25.55;;;;;;;;;;4991698;28;20183;-68
2021/04/30 11:00:15;;;;;;;34.28;23.58;;;;;;;;;;4984610;28;20187;-68
2021/04/30 11:02:40;;;;;;;35.05;25.38;;;;;;;;;;4995088;28;20215;-67
2021/04/30 11:05:06;;;;;;;30.38;24.17;;;;;;;;;;4985746;28;20211;-67
2021/04/30 11:07:42;;;;;;;30.88;24.13;;;;;;;;;;4992140;28;20568;-68
2021/04/30 11:10:31;;;;;;;32.50;23.48;;;;;;;;;;4983615;28;20233;-68
2021/04/30 11:13:10;;;;;;;27.48;21.00;;;;;;;;;;4996061;28;20298;-68
2021/04/30 11:15:47;;;;;;;27.67;21.02;;;;;;;;;;4989092;28;20228;-68
2021/04/30 11:18:23;;;;;;;28.50;22.08;;;;;;;;;;4992544;28;20205;-67
2021/04/30 11:21:09;;;;;;;24.80;19.00;;;;;;;;;;4981689;28;20195;-68
2021/04/30 11:23:52;;;;;;;24.80;18.30;;;;;;;;;;5005251;28;20194;-68
2021/04/30 11:26:18;;;;;;;23.67;19.35;;;;;;;;;;4985161;28;23061;-68
2021/04/30 11:28:43;;;;;;;26.27;20.13;;;;;;;;;;4997824;28;20187;-68
2021/04/30 11:31:28;;;;;;;26.45;20.45;;;;;;;;;;4984311;28;20260;-68
2021/04/30 11:34:09;;;;;;;23.50;19.38;;;;;;;;;;4993209;28;20175;-68
2021/04/30 11:36:36;;;;;;;23.05;18.30;;;;;;;;;;4981942;28;20519;-68
2021/04/30 11:39:25;;;;;;;23.80;17.65;;;;;;;;;;4993487;28;20263;-68
2021/04/30 11:41:55;;;;;;;22.33;17.13;;;;;;;;;;4982033;28;20191;-68
2021/04/30 11:44:20;;;;;;;21.83;16.60;;;;;;;;;;4990137;28;20215;-68
2021/04/30 11:46:58;;;;;;;19.85;16.15;;;;;;;;;;4993925;28;20282;-68
2021/04/30 11:49:24;;;;;;;20.70;16.10;;;;;;;;;;4991394;28;21169;-66
2021/04/30 11:51:50;;;;;;;20.63;16.67;;;;;;;;;;4995286;28;20187;-67
2021/04/30 11:54:20;;;;;;;22.60;17.55;;;;;;;;;;4980660;28;20191;-68
2021/04/30 11:56:55;;;;;;;20.55;16.25;;;;;;;;;;4989178;28;20175;-67
2021/04/30 11:59:21;;;;;;;21.33;16.83;;;;;;;;;;4978036;28;20312;-67
2021/04/30 12:01:54;;;;;;;22.23;18.02;;;;;;;;;;4993517;28;20278;-67
2021/04/30 12:04:39;;;;;;;23.98;18.45;;;;;;;;;;4984578;28;20282;-68
2021/04/30 12:07:05;;;;;;;22.92;18.15;;;;;;;;;;4994448;28;20191;-68
2021/04/30 12:09:30;;;;;;;19.60;17.20;;;;;;;;;;4978999;28;20200;-68
2021/04/30 12:12:12;;;;;;;23.83;17.85;;;;;;;;;;4991319;28;20539;-68
2021/04/30 12:14:58;;;;;;;24.73;17.98;;;;;;;;;;4981060;28;20186;-68
2021/04/30 12:17:29;;;;;;;20.85;17.48;;;;;;;;;;4988873;28;20613;-68
2021/04/30 12:20:03;;;;;;;25.55;18.35;;;;;;;;;;4980793;28;20627;-67
2021/04/30 12:22:29;;;;;;;25.10;18.45;;;;;;;;;;4992583;28;20646;-68
2021/04/30 12:25:34;;;;;;;23.83;19.08;;;;;;;;;;4983728;28;20207;-68
2021/04/30 12:28:26;;;;;;;20.50;18.27;;;;;;;;;;4990773;28;20254;-68
2021/04/30 12:31:09;;;;;;;26.23;19.13;;;;;;;;;;4985400;28;20617;-67
2021/04/30 12:33:38;;;;;;;24.13;18.17;;;;;;;;;;4988678;28;20187;-67
2021/04/30 12:36:16;;;;;;;24.73;18.48;;;;;;;;;;4978901;28;20191;-68
2021/04/30 12:38:44;;;;;;;22.02;18.77;;;;;;;;;;4988168;28;20631;-67
2021/04/30 12:41:12;;;;;;;23.35;19.02;;;;;;;;;;4984490;28;20194;-66
2021/04/30 12:43:39;;;;;;;23.15;18.95;;;;;;;;;;4988378;28;20210;-67
2021/04/30 12:46:19;;;;;;;22.45;18.40;;;;;;;;;;4984121;28;20201;-67
2021/04/30 12:48:47;;;;;;;23.52;19.15;;;;;;;;;;4991980;28;20799;-67
2021/04/30 12:51:14;;;;;;;23.65;17.67;;;;;;;;;;4986757;28;20187;-68
2021/04/30 12:53:41;;;;;;;26.70;18.27;;;;;;;;;;4988864;28;20190;-67
2021/04/30 12:56:09;;;;;;;23.17;19.25;;;;;;;;;;4989556;28;20214;-67
2021/04/30 12:58:39;;;;;;;21.52;18.08;;;;;;;;;;4996809;28;20266;-68
2021/04/30 13:01:10;;;;;;;23.42;18.65;;;;;;;;;;4983059;28;20182;-67
2021/04/30 13:03:41;;;;;;;24.70;20.40;;;;;;;;;;4995992;28;20728;-67
2021/04/30 13:06:10;;;;;;;24.40;18.33;;;;;;;;;;4981611;28;20183;-68
2021/04/30 13:08:37;;;;;;;25.17;18.05;;;;;;;;;;4993622;28;20279;-67
2021/04/30 13:11:03;;;;;;;21.67;17.98;;;;;;;;;;4996210;28;20170;-67
2021/04/30 13:13:29;;;;;;;23.90;17.40;;;;;;;;;;4980753;28;20190;-67
2021/04/30 13:16:04;;;;;;;21.27;17.90;;;;;;;;;;4991142;28;20241;-67
2021/04/30 13:18:34;;;;;;;22.42;18.80;;;;;;;;;;4984679;28;20256;-67
2021/04/30 13:21:00;;;;;;;23.60;17.98;;;;;;;;;;4990073;28;20187;-67
2021/04/30 13:23:34;;;;;;;20.88;17.10;;;;;;;;;;4982082;28;20211;-66
2021/04/30 13:25:59;;;;;;;20.63;16.50;;;;;;;;;;4991307;28;20259;-66
2021/04/30 13:28:28;;;;;;;21.48;17.75;;;;;;;;;;4982747;28;20183;-67
2021/04/30 13:30:55;;;;;;;23.20;19.48;;;;;;;;;;4994120;28;20210;-67
2021/04/30 13:33:22;;;;;;;22.80;18.67;;;;;;;;;;4986197;28;20190;-67
2021/04/30 13:35:51;;;;;;;21.35;17.90;;;;;;;;;;4993278;28;20595;-67
2021/04/30 13:38:23;;;;;;;21.73;17.92;;;;;;;;;;4980739;28;20721;-67
2021/04/30 13:40:48;;;;;;;19.85;17.75;;;;;;;;;;4995468;28;20179;-67
2021/04/30 13:43:28;;;;;;;21.77;17.05;;;;;;;;;;4989794;28;20215;-67
2021/04/30 13:45:53;;;;;;;20.00;16.55;;;;;;;;;;4997707;28;20171;-67
2021/04/30 13:48:25;;;;;;;21.67;18.33;;;;;;;;;;4984078;28;20666;-68
2021/04/30 13:50:50;;;;;;;21.30;17.00;;;;;;;;;;5001126;28;20213;-67
2021/04/30 13:53:16;;;;;;;21.70;16.95;;;;;;;;;;4995080;28;20610;-67
2021/04/30 13:55:41;;;;;;;22.83;16.33;;;;;;;;;;4984189;28;20647;-68
2021/04/30 13:58:06;;;;;;;17.77;15.30;;;;;;;;;;4983497;28;20294;-68
2021/04/30 14:00:32;;;;;;;22.70;16.48;;;;;;;;;;4979503;28;20527;-68
2021/04/30 14:02:57;;;;;;;16.77;14.77;;;;;;;;;;4995051;28;20337;-68
2021/04/30 14:05:24;;;;;;;16.15;13.73;;;;;;;;;;4985056;28;20199;-68
2021/04/30 14:07:51;;;;;;;17.42;14.75;;;;;;;;;;4994656;28;20282;-68
2021/04/30 14:10:17;;;;;;;18.23;15.23;;;;;;;;;;4987288;28;20198;-68
2021/04/30 14:12:43;;;;;;;16.90;14.95;;;;;;;;;;4996747;28;20179;-68
2021/04/30 14:15:11;;;;;;;19.00;14.90;;;;;;;;;;4985423;28;20195;-68
2021/04/30 14:17:38;;;;;;;16.52;13.65;;;;;;;;;;4999406;28;20187;-68
2021/04/30 14:20:04;;;;;;;16.60;13.63;;;;;;;;;;4983798;28;20268;-68